Date,TemperatureHighF,TemperatureAvgF,TemperatureLowF,DewpointHighF,DewpointAvgF,DewpointLowF,HumidityHigh,HumidityAvg,HumidityLow,PressureMaxIn,PressureMinIn,WindSpeedMaxMPH,WindSpeedAvgMPH,GustSpeedMaxMPH,PrecipitationSumIn
2014-1-1,70.3,65.6,62.1,69.4,63.5,54.8,100,93,76,30.26,30.08,15,10,16,0.30
2014-1-2,82.0,72.2,65.1,76.3,68.8,65.1,100,90,61,30.08,29.87,18,7,24,0.32
2014-1-3,68.5,51.3,46.8,68.0,38.0,17.3,98,63,26,30.27,29.95,25,12,26,0.00
2014-1-4,65.7,57.6,46.9,61.5,54.5,41.1,96,89,80,30.25,30.10,13,4,14,0.00
2014-1-5,81.7,69.7,61.3,75.5,65.2,60.8,100,87,63,30.10,29.97,10,2,13,0.13
2014-1-6,78.8,64.8,46.0,72.8,54.1,0.1,100,73,14,30.31,29.99,17,7,24,0.00
2014-1-7,50.0,43.8,38.5,42.1,21.7,5.8,100,45,20,30.44,30.28,20,11,23,0.00
2014-1-8,66.9,55.4,40.8,56.7,48.6,37.3,100,80,52,30.40,30.27,19,11,23,0.00
2014-1-9,70.7,66.6,62.8,70.7,65.6,56.7,100,96,79,30.31,30.19,18,10,18,0.07
2014-1-10,78.3,71.7,66.2,76.9,70.7,66.2,100,97,88,30.22,30.08,8,2,10,0.00
2014-1-11,84.4,75.2,68.4,77.2,70.4,64.7,100,86,57,30.12,29.96,18,6,23,0.17
2014-1-12,71.1,64.0,53.6,69.5,52.0,30.8,98,70,24,30.22,30.03,14,6,14,0.00
2014-1-13,80.4,65.2,52.0,69.3,56.9,43.6,94,75,54,30.20,30.04,8,3,9,0.00
2014-1-14,73.6,69.8,65.3,73.2,67.3,61.7,100,92,81,30.05,29.95,13,4,17,0.01
2014-1-15,65.1,57.2,51.3,61.5,51.0,46.7,94,80,62,30.09,29.97,9,3,11,0.00
2014-1-16,58.6,50.1,39.6,51.5,24.1,3.1,90,45,12,30.19,29.96,14,6,21,0.00
2014-1-17,64.9,46.9,33.4,34.1,19.4,5.8,81,41,12,30.26,30.14,9,2,9,0.00
2014-1-18,60.4,50.1,35.8,41.2,23.9,5.8,74,39,24,30.31,30.14,17,4,17,0.00
2014-1-19,69.4,55.6,30.9,55.4,42.3,16.2,100,70,24,30.28,30.16,11,4,18,0.00
2014-1-20,74.8,59.6,46.6,67.7,51.3,43.1,100,79,33,30.20,30.05,14,3,16,0.00
2014-1-21,74.5,61.9,52.7,67.9,56.3,46.5,100,84,38,30.07,29.85,14,5,21,0.00
2014-1-22,61.3,50.3,40.5,45.1,22.1,5.0,66,36,17,30.22,29.94,14,5,18,0.00
2014-1-23,68.2,49.4,34.9,42.0,26.0,10.7,100,50,18,30.38,30.20,17,5,17,0.00
2014-1-24,61.2,51.2,44.2,43.0,26.2,5.4,79,44,18,30.49,30.30,19,10,21,0.00
2014-1-25,72.1,57.9,45.9,58.0,48.8,39.7,89,73,43,30.30,30.06,13,4,14,0.00
2014-1-26,71.1,61.8,53.2,69.7,59.8,53.2,100,94,65,30.10,30.01,8,2,11,0.09
2014-1-27,81.1,68.1,58.6,70.9,60.2,50.8,100,79,37,30.05,29.95,14,4,17,0.00
2014-1-28,81.3,68.0,56.5,73.3,58.3,51.3,100,75,37,30.10,29.97,9,2,12,0.00
2014-1-29,67.8,58.5,48.6,67.2,57.8,48.6,100,97,83,30.19,30.00,21,9,22,1.40
2014-1-30,54.3,52.0,49.8,54.3,52.0,49.8,100,100,100,30.19,30.09,13,8,14,0.59
2014-1-31,69.8,61.1,54.1,66.8,59.6,54.1,100,95,86,30.15,30.05,14,6,14,0.98
2014-2-1,81.3,70.9,64.2,73.4,64.9,60.9,92,82,59,30.17,30.07,8,2,9,0.00
2014-2-2,84.4,72.2,64.2,71.8,62.5,57.1,89,73,48,30.19,30.06,4,1,6,0.00
2014-2-3,84.7,72.1,62.6,71.3,61.9,55.3,87,72,45,30.14,30.02,11,2,13,0.00
2014-2-4,88.0,74.7,66.4,76.8,67.1,62.4,97,79,46,30.15,30.03,7,2,8,0.00
2014-2-5,84.0,74.3,67.6,76.5,69.9,63.3,100,86,66,30.12,29.99,13,3,17,0.15
2014-2-6,73.4,70.3,60.4,71.5,67.4,55.9,99,90,82,30.16,30.05,16,6,18,0.00
2014-2-7,72.3,61.7,54.5,64.1,58.3,52.1,97,89,72,30.20,30.10,17,8,17,0.00
2014-2-8,78.1,64.4,60.1,72.5,62.3,57.9,100,93,72,30.15,30.04,17,6,18,0.00
2014-2-9,74.3,64.1,58.3,62.7,54.0,40.4,99,74,30,30.16,30.04,13,6,16,0.00
2014-2-10,78.1,64.9,56.3,60.2,51.4,41.0,93,66,27,30.14,30.02,9,4,9,0.00
2014-2-11,83.1,68.6,57.7,65.7,47.4,28.6,78,53,14,30.10,29.99,11,4,16,0.00
2014-2-12,81.5,67.0,57.2,68.3,56.4,43.6,94,71,27,30.05,29.75,21,4,21,0.83
2014-2-13,64.9,59.7,46.9,64.9,48.4,30.6,100,70,30,30.01,29.73,24,9,24,0.00
2014-2-14,68.4,52.6,39.6,45.7,30.2,11.4,94,52,12,30.12,29.96,11,3,11,0.00
2014-2-15,72.0,59.2,48.0,61.3,32.6,4.9,94,49,12,30.17,29.96,20,6,23,0.00
2014-2-16,75.4,55.1,41.4,41.5,33.0,20.3,80,48,25,30.23,30.14,10,2,10,0.00
2014-2-17,81.7,61.5,44.8,59.5,42.1,27.8,100,57,25,30.27,30.16,5,2,6,0.00
2014-2-18,83.3,65.8,51.3,62.7,53.0,37.1,100,70,22,30.28,30.16,5,2,8,0.00
2014-2-19,84.9,69.4,56.3,68.7,60.0,45.7,100,77,27,30.23,30.08,7,2,9,0.00
2014-2-20,88.2,71.8,57.9,68.9,61.7,56.1,100,75,35,30.20,30.08,7,1,10,0.00
2014-2-21,84.6,74.7,66.6,76.1,68.9,60.8,100,84,45,30.10,30.01,19,4,19,0.00
2014-2-22,84.2,72.9,67.3,76.5,69.3,65.5,100,89,64,30.13,30.01,14,2,18,0.95
2014-2-23,85.6,74.1,67.5,76.9,66.2,54.7,100,81,35,30.11,29.98,14,4,14,0.00
2014-2-24,81.9,72.2,63.9,71.6,64.2,58.4,100,78,46,30.08,29.98,10,3,13,0.00
2014-2-25,82.6,72.1,63.9,68.9,59.2,44.4,100,70,27,30.08,29.93,9,4,12,0.00
2014-2-26,80.4,68.4,56.1,65.9,58.7,52.6,100,73,47,30.00,29.76,15,4,24,0.30
2014-2-27,72.1,64.8,55.9,65.6,58.2,45.4,98,81,41,29.99,29.78,11,4,11,0.13
2014-2-28,71.4,60.1,52.9,57.9,47.4,34.8,100,69,27,30.13,29.95,13,4,14,0.00
2014-3-1,78.4,65.0,52.2,68.6,55.6,38.5,100,78,29,30.23,30.11,12,5,14,0.00
2014-3-2,84.2,69.8,58.8,73.2,59.1,36.8,100,75,19,30.24,30.07,9,4,9,0.00
2014-3-3,83.7,69.6,57.7,73.0,57.0,42.1,100,72,30,30.11,29.98,12,4,17,0.00
2014-3-4,82.2,71.7,62.4,71.2,63.4,54.9,100,79,40,30.08,29.96,10,3,11,0.00
2014-3-5,83.3,71.8,64.0,77.6,65.3,43.9,100,85,25,30.08,29.96,15,6,17,0.10
2014-3-6,70.5,67.4,64.6,69.5,67.0,64.6,100,99,91,30.06,29.75,10,4,13,0.33
2014-3-7,68.7,63.7,53.4,65.9,56.6,46.0,100,80,46,30.10,29.81,17,8,22,0.00
2014-3-8,75.9,61.0,46.0,66.4,52.6,34.2,100,78,22,30.20,30.09,14,5,14,0.00
2014-3-9,81.1,66.7,56.1,67.3,52.6,21.0,100,72,12,30.25,30.11,7,3,8,0.00
2014-3-10,80.4,67.8,55.4,63.1,57.2,50.8,100,73,40,30.18,30.01,10,4,12,0.00
2014-3-11,84.4,67.7,52.7,74.0,57.9,49.0,100,75,40,30.06,29.86,10,3,11,0.00
2014-3-12,82.0,72.0,66.0,76.0,68.8,58.5,100,91,45,29.92,29.80,21,7,21,0.30
2014-3-13,68.9,62.7,54.0,65.9,48.6,32.0,100,66,29,30.25,29.90,19,8,20,0.00
2014-3-14,81.9,64.2,51.3,64.1,48.5,37.9,100,64,24,30.32,30.19,16,4,17,0.00
2014-3-15,82.4,67.8,54.1,76.8,59.9,44.8,100,82,30,30.24,30.06,0,0,0,0.00
2014-3-16,81.1,66.6,59.2,67.9,62.4,56.9,100,89,44,30.09,29.84,5,0,6,0.00
2014-3-17,80.2,74.4,70.9,71.7,67.8,60.2,91,80,69,29.84,29.71,12,4,14,0.45
2014-3-18,77.0,69.7,61.9,72.5,61.5,51.5,95,77,44,30.06,29.66,19,4,19,0.40
2014-3-19,81.1,66.8,59.5,64.3,59.2,55.2,95,78,48,30.12,30.02,10,4,14,0.00
2014-3-20,85.6,70.0,63.7,67.8,62.0,57.9,92,77,42,30.09,29.97,12,4,17,0.00
2014-3-21,81.9,71.4,65.8,67.4,62.9,59.8,91,76,56,30.10,30.02,14,5,19,0.00
2014-3-22,84.2,71.7,65.3,66.5,62.6,60.3,93,74,46,30.10,29.99,8,2,10,0.02
2014-3-23,84.0,71.3,62.2,70.0,64.0,58.7,100,80,51,30.08,29.98,4,0,7,0.01
2014-3-24,71.2,67.6,64.6,69.2,66.6,63.7,100,97,81,30.09,29.93,7,2,8,0.30
2014-3-25,75.9,66.3,54.5,68.9,62.1,46.6,100,88,55,30.05,29.87,12,4,14,0.40
2014-3-26,65.7,54.9,47.7,48.5,35.1,25.8,79,49,29,30.31,30.05,16,7,17,0.00
2014-3-27,69.1,58.7,51.1,62.2,52.7,43.6,90,80,62,30.34,30.23,13,4,13,0.02
2014-3-28,81.5,68.9,60.4,67.2,63.0,59.2,99,83,55,30.23,30.04,6,1,8,0.00
2014-3-29,80.8,72.1,66.2,74.1,69.4,64.7,100,91,76,30.08,29.89,11,3,17,0.30
2014-3-30,76.3,65.5,56.7,66.8,54.4,34.1,100,74,22,30.11,29.95,14,3,14,0.00
2014-3-31,76.3,60.3,49.6,56.2,49.2,39.9,100,72,30,30.19,30.11,8,2,10,0.00
2014-4-1,83.5,64.9,51.8,61.5,54.8,47.9,100,75,32,30.21,30.12,6,1,6,0.00
2014-4-2,85.1,67.7,57.4,64.4,58.9,52.8,100,78,36,30.21,30.12,4,1,7,0.01
2014-4-3,85.8,68.7,57.2,65.7,61.4,57.2,100,81,46,30.18,30.05,4,1,7,0.01
2014-4-4,85.5,70.7,61.3,68.3,62.9,57.8,100,80,41,30.11,30.00,6,1,12,0.00
2014-4-5,87.1,71.4,61.9,69.1,63.6,59.2,100,80,42,30.08,29.98,5,1,11,0.00
2014-4-6,88.7,72.6,61.3,67.2,62.9,55.2,100,76,33,30.05,29.93,10,1,10,0.00
2014-4-7,90.7,76.3,68.2,70.2,67.2,62.7,99,76,42,29.98,29.85,11,3,14,0.00
2014-4-8,77.0,72.7,62.4,75.6,70.3,61.9,100,92,78,29.91,29.74,9,3,19,0.52
2014-4-9,74.3,63.6,54.3,62.0,54.9,46.2,100,77,39,30.19,29.91,11,2,12,0.00
2014-4-10,82.0,64.4,54.1,59.3,55.3,49.7,100,76,39,30.29,30.19,10,1,12,0.00
2014-4-11,81.0,67.4,57.2,67.5,59.4,52.0,95,76,53,30.28,30.14,11,2,15,0.00
2014-4-12,85.1,70.8,63.1,66.4,62.8,55.0,100,79,39,30.22,30.11,19,5,19,0.00
2014-4-13,84.2,70.7,62.6,71.9,65.0,60.8,100,84,48,30.14,30.04,13,4,16,0.04
2014-4-14,87.4,76.7,68.9,74.3,66.4,56.5,100,74,35,30.04,29.91,8,2,10,0.04
2014-4-15,88.7,75.9,67.3,75.5,69.5,65.0,100,82,50,29.96,29.83,10,4,22,0.02
2014-4-16,76.8,66.6,56.8,66.2,59.6,51.3,93,79,62,30.14,29.96,20,8,23,0.00
2014-4-17,80.2,70.8,65.3,72.2,67.3,60.9,100,89,76,30.18,30.10,17,9,21,0.71
2014-4-18,83.8,72.8,67.8,74.4,69.9,66.7,100,92,58,30.14,29.95,10,3,16,0.25
2014-4-19,77.5,69.9,64.0,69.8,63.7,55.2,100,82,55,30.00,29.91,10,3,14,0.28
2014-4-20,73.9,65.8,61.0,63.7,60.6,56.3,100,84,62,30.08,29.98,12,4,12,0.01
2014-4-21,73.9,65.9,57.2,62.1,59.8,57.2,100,82,61,30.09,29.98,11,3,14,0.00
2014-4-22,82.0,69.2,57.0,62.9,60.1,57.0,100,75,49,30.00,29.87,6,2,13,0.00
2014-4-23,84.0,70.7,57.7,65.1,61.0,57.8,100,75,43,29.98,29.88,6,2,10,0.00
2014-4-24,87.1,73.7,61.7,69.5,64.5,61.2,100,76,47,30.04,29.93,6,1,7,0.00
2014-4-25,86.9,73.7,61.9,67.6,63.0,56.8,100,73,37,30.05,29.94,10,3,12,0.00
2014-4-26,89.8,75.5,61.5,70.0,64.5,57.6,100,73,37,30.04,29.97,9,2,11,0.00
2014-4-27,92.8,79.3,68.7,71.9,67.8,62.3,100,72,38,30.03,29.93,4,1,7,0.00
2014-4-28,93.9,78.3,68.0,75.1,67.0,59.9,98,71,34,30.00,29.91,6,1,10,0.00
2014-5-1,80.6,76.1,72.7,72.2,71.0,69.9,94,84,73,30.01,29.99,2,0,2,0.00
2014-5-2,87.4,75.5,69.6,74.0,71.0,66.4,100,88,50,30.00,29.90,11,2,13,1.21
2014-5-3,73.6,69.8,63.9,73.6,69.8,63.9,100,100,96,30.04,29.91,8,2,12,1.77
2014-5-4,83.3,70.0,57.7,64.4,57.6,49.8,100,70,33,30.11,30.03,16,4,17,0.00
2014-5-5,89.8,73.3,57.4,64.4,58.7,53.5,98,65,32,30.10,29.98,11,2,13,0.00
2014-5-6,90.5,75.5,59.7,68.7,62.6,51.2,100,69,28,30.06,29.99,5,1,5,0.00
2014-5-7,91.8,78.0,65.3,72.5,67.7,61.9,100,75,39,30.16,30.04,4,1,6,0.00
2014-5-8,91.8,79.4,69.1,71.7,68.9,61.7,100,74,38,30.22,30.13,4,1,7,0.00
2014-5-9,91.4,79.5,69.8,72.7,68.8,61.5,100,73,38,30.21,30.09,4,1,6,0.00
2014-5-10,92.8,79.6,69.3,73.8,70.4,64.4,100,76,43,30.18,30.05,5,1,10,0.00
2014-5-11,91.2,79.9,72.7,75.4,70.9,66.2,97,76,44,30.16,30.06,10,1,12,0.00
2014-5-12,90.3,78.5,70.3,72.5,69.3,64.8,99,75,47,30.16,30.08,14,4,19,0.00
2014-5-13,88.5,78.0,70.7,76.3,72.3,69.9,100,84,58,30.10,30.01,16,6,22,0.02
2014-5-14,93.4,80.4,72.3,76.5,72.8,69.7,100,80,51,30.08,29.95,9,2,11,0.00
2014-5-15,90.3,77.4,72.1,77.9,74.5,70.7,100,92,58,30.04,29.90,9,1,10,0.80
2014-5-16,80.8,71.6,63.7,72.4,58.6,45.7,100,69,30,30.14,29.98,14,4,16,0.00
2014-5-17,82.2,70.5,58.6,61.3,57.5,48.5,100,68,37,30.17,30.10,19,7,22,0.00
2014-5-18,84.0,73.6,64.9,65.7,62.2,58.1,91,69,47,30.17,30.10,19,8,22,0.00
2014-5-19,86.0,75.0,65.1,68.9,63.7,58.8,100,71,41,30.18,30.12,15,7,19,0.00
2014-5-20,85.3,75.1,64.4,68.8,65.2,58.7,100,74,44,30.22,30.14,18,8,22,0.00
2014-5-21,88.7,76.1,63.9,66.8,64.1,60.0,96,69,39,30.21,30.13,12,4,14,0.00
2014-5-22,92.1,76.8,61.9,69.7,64.8,58.5,100,71,33,30.18,30.05,8,1,12,0.00
2014-5-23,94.1,80.2,66.7,70.1,66.7,62.3,100,68,35,30.12,30.03,7,2,10,0.00
2014-5-24,95.0,81.0,69.4,74.5,70.0,65.0,99,72,39,30.11,30.01,6,1,8,0.00
2014-5-25,95.0,81.3,71.6,75.5,70.9,67.0,97,73,40,30.15,30.03,12,2,16,0.00
2014-5-26,93.4,76.4,68.9,74.7,70.7,64.9,100,85,41,30.19,30.11,15,2,22,0.70
2014-5-27,88.9,78.0,70.0,75.7,71.8,65.5,100,83,46,30.18,30.06,8,1,13,0.00
2014-5-28,93.6,79.3,70.7,74.8,70.2,63.0,100,77,39,30.10,29.99,14,1,16,0.00
2014-5-29,91.9,76.9,71.1,75.4,71.6,67.0,100,86,49,30.05,29.97,12,1,14,0.20
2014-5-30,88.3,76.8,70.2,77.8,71.7,66.7,100,86,56,30.06,29.98,10,2,13,0.01
2014-5-31,89.6,77.5,69.8,76.8,72.3,69.8,100,85,54,30.06,29.98,13,2,20,0.01
2014-6-1,88.3,77.7,71.4,76.5,73.9,71.5,100,89,61,30.09,30.01,17,5,20,0.12
2014-6-2,84.2,76.2,72.5,74.7,71.7,67.2,100,87,61,30.12,30.05,13,6,16,0.35
2014-6-3,87.6,77.0,70.9,71.1,67.2,63.9,92,73,50,30.10,30.00,10,4,14,0.00
2014-6-4,89.8,77.8,68.9,73.6,53.4,-99.9,89,69,54,30.03,29.93,7,1,10,0.00
2014-6-5,93.7,80.5,69.4,-99.9,-99.9,-99.9,59,0,59,29.99,29.90,0,0,0,0.00
2014-6-6,91.2,77.5,70.7,-99.9,-99.9,-99.9,0,0,100,30.01,29.91,0,0,0,0.00
2014-6-8,80.0,80.0,80.0,71.0,71.0,71.0,0,0,100,30.04,29.89,6,2,13,2.12
2014-6-9,80.0,80.0,80.0,71.0,71.0,71.0,0,0,100,30.02,29.92,7,1,9,0.02
2014-6-10,80.0,70.0,80.0,71.0,71.0,71.0,0,0,100,30.04,29.98,7,1,10,0.01
2014-6-12,80.0,80.0,80.0,71.0,71.0,71.0,0,0,100,30.04,29.95,14,3,18,0.08
2014-6-13,80.0,80.0,80.0,71.0,71.0,71.0,0,0,100,30.06,29.98,13,2,13,0.01
2014-6-16,80.0,80.0,80.0,68.1,68.1,68.1,0,0,100,30.14,30.14,5,4,7,0.00
2014-6-17,80.0,80.0,80.0,68.1,68.1,68.1,0,0,100,30.17,30.08,15,2,15,0.09
2014-6-18,80.0,80.0,80.0,68.1,68.1,68.1,0,0,100,30.15,30.09,9,2,14,0.30
2014-6-19,80.0,80.0,80.0,68.1,68.1,68.1,0,0,100,30.15,30.08,11,2,16,0.05
2014-6-20,80.0,80.0,80.0,68.1,68.1,68.1,0,0,100,30.11,29.99,8,2,15,0.07
2014-6-21,80.0,80.0,80.0,68.1,68.1,68.1,0,0,100,30.05,29.91,17,3,17,0.01
2014-6-22,80.0,80.0,80.0,68.1,68.1,68.1,0,0,100,30.02,29.92,9,2,12,0.00
2014-6-23,80.0,80.0,80.0,68.1,68.1,68.1,0,0,100,30.11,29.98,7,2,10,0.01
2014-6-24,80.0,80.0,80.0,68.1,68.1,68.1,0,0,100,30.17,30.07,5,1,8,0.00
2014-6-25,80.0,80.0,80.0,68.1,68.1,68.1,0,0,100,30.16,30.04,7,2,9,0.00
2014-6-26,80.0,80.0,80.0,68.1,68.1,68.1,0,0,100,30.14,29.98,10,2,25,0.67
2014-6-27,80.0,80.0,80.0,68.1,68.1,68.1,0,0,100,30.17,30.05,9,2,16,0.59
2014-6-28,80.0,80.0,80.0,68.1,68.1,68.1,0,0,100,30.17,30.08,10,2,11,0.01
2014-6-29,80.0,80.0,80.0,68.1,68.1,68.1,0,0,100,30.16,30.04,14,2,19,0.01
2014-6-30,80.0,80.0,80.0,68.1,68.1,68.1,0,0,100,30.10,29.93,22,4,26,0.08
2014-7-1,80.0,63.7,32.0,68.1,34.3,-31.6,0,0,100,30.05,29.86,18,3,18,0.00
2014-7-2,94.3,15.8,75.7,74.6,-66.1,-99.9,91,15,49,30.11,29.91,12,2,18,0.00
2014-7-3,94.3,83.2,73.0,76.2,73.9,71.3,97,76,48,30.11,29.98,10,3,15,0.00
2014-7-4,93.7,78.6,70.9,78.5,72.2,65.0,100,83,44,30.14,30.08,9,2,12,0.01
2014-7-5,90.3,76.9,70.9,78.8,73.1,70.0,100,89,54,30.15,30.08,7,1,12,1.66
2014-7-6,93.7,77.0,70.9,78.7,72.5,70.0,99,88,47,30.12,30.04,17,2,19,1.42
2014-7-7,85.5,78.0,70.9,79.1,73.0,70.0,97,85,66,30.15,30.05,4,1,6,0.00
2014-7-8,93.2,79.2,70.5,78.7,72.6,69.3,97,83,48,30.17,30.07,12,1,14,0.40
2014-7-9,92.5,79.0,69.4,75.7,71.9,68.6,97,81,47,30.16,30.07,10,1,12,0.04
2014-7-10,92.5,77.1,71.4,77.3,73.1,70.6,97,88,58,30.15,30.07,5,1,8,0.15
2014-7-11,94.3,80.5,72.7,79.4,73.5,68.8,97,81,48,30.17,30.08,7,1,11,0.01
2014-7-12,93.7,78.6,72.5,78.4,74.5,69.9,100,88,54,30.16,30.08,12,2,13,0.41
2014-7-13,95.9,81.3,72.0,80.1,74.9,69.2,100,83,43,30.14,30.06,12,2,17,0.00
2014-7-14,95.2,79.4,72.1,79.0,75.0,71.0,100,88,52,30.11,30.04,10,1,12,0.14
2014-7-15,91.6,77.3,71.4,77.0,73.2,69.2,100,89,55,30.05,29.97,9,1,20,0.42
2014-7-16,87.8,75.2,72.0,79.4,74.3,72.0,100,97,75,30.02,29.94,6,2,11,0.52
2014-7-17,88.3,77.4,72.0,78.4,74.7,71.2,100,92,67,30.04,29.95,8,1,11,0.32
2014-7-18,92.1,81.6,70.3,77.1,71.9,66.6,100,76,47,30.10,30.01,9,2,9,0.00
2014-7-19,95.4,83.6,73.0,80.0,74.0,66.1,100,77,39,30.10,30.03,11,1,21,0.04
2014-7-20,96.4,81.9,74.1,79.0,75.3,71.3,100,82,51,30.09,30.00,10,2,19,0.05
2014-7-21,97.0,81.7,73.0,79.1,74.2,70.3,100,80,49,30.09,29.99,10,2,12,0.11
2014-7-22,92.1,79.0,73.0,79.1,74.8,73.1,100,88,56,30.08,30.01,8,2,11,1.00
2014-7-23,75.2,75.2,75.2,74.0,74.0,74.0,96,96,96,30.08,30.08,3,3,3,0.00
2014-7-24,93.0,78.9,72.5,79.3,75.6,71.7,100,91,60,30.08,30.00,8,1,14,0.92
2014-7-25,95.7,80.3,73.0,80.5,74.7,71.0,100,85,46,30.11,30.04,7,1,14,0.00
2014-7-26,94.3,81.9,73.0,78.4,74.3,71.0,100,80,47,30.12,30.05,6,1,14,0.00
2014-7-27,94.6,83.1,73.6,78.2,74.9,71.7,100,78,51,30.12,30.05,8,2,9,0.00
2014-7-28,93.7,83.7,74.1,78.4,74.2,70.9,100,75,51,30.09,29.99,9,2,14,0.00
2014-7-29,91.9,80.7,74.7,79.5,75.4,71.3,100,85,60,30.03,29.95,11,2,15,0.23
2014-7-30,94.3,81.6,74.1,77.8,74.5,71.4,100,82,51,30.00,29.93,6,2,10,0.00
2014-7-31,93.7,82.9,72.5,76.2,71.7,66.1,100,72,43,30.02,29.94,7,2,9,0.00
2014-8-1,93.7,80.6,74.3,77.7,74.8,71.6,100,85,51,30.01,29.93,7,1,10,0.93
2014-8-2,95.9,82.6,73.6,81.2,76.4,71.6,100,84,47,30.01,29.91,10,2,14,0.11
2014-8-3,93.6,81.8,76.8,80.4,77.3,75.1,100,87,59,29.97,29.88,9,2,11,0.24
2014-8-4,89.4,76.6,73.0,79.4,75.0,72.8,100,95,67,30.01,29.91,6,2,9,0.10
2014-8-5,88.2,79.3,73.2,80.1,75.8,71.2,100,90,69,30.10,29.97,7,2,12,0.20
2014-8-6,93.7,79.9,72.5,79.3,75.0,71.6,100,87,55,30.09,30.00,11,2,15,0.02
2014-8-7,95.2,80.1,72.5,79.7,74.6,71.8,100,85,49,30.04,29.94,13,2,25,0.58
2014-8-8,92.1,79.4,71.4,80.6,74.3,70.9,100,86,59,30.09,29.98,8,1,11,0.01
2014-8-9,93.2,78.2,72.1,77.4,74.4,71.3,100,90,51,30.10,30.03,10,1,12,0.72
2014-8-10,94.1,80.5,73.0,79.6,74.3,71.8,100,83,51,30.09,30.03,9,2,11,0.01
2014-8-11,94.6,81.3,72.5,78.4,72.1,65.9,100,77,39,30.09,30.00,9,2,11,0.00
2014-8-12,94.6,81.6,72.0,78.2,73.4,70.1,100,79,48,30.05,29.97,10,2,12,0.00
2014-8-13,94.1,79.6,74.1,79.0,75.2,71.7,100,88,55,30.04,29.99,8,2,9,0.08
2014-8-14,91.0,78.7,73.6,80.0,76.1,72.4,100,92,63,30.06,29.98,7,1,16,0.39
2014-8-15,90.0,78.3,72.0,79.5,75.6,71.6,100,92,68,30.06,29.99,9,2,9,0.20
2014-8-16,89.2,75.2,69.3,80.3,73.9,69.3,100,96,67,30.15,30.03,9,1,14,1.58
2014-8-17,96.4,81.1,70.9,79.7,74.8,70.9,100,83,47,30.14,30.05,5,1,7,0.03
2014-8-18,96.3,83.2,73.8,79.0,75.0,70.2,100,79,43,30.10,29.98,8,2,12,0.00
2014-8-19,95.9,83.4,73.6,77.8,73.4,68.9,100,75,43,30.06,29.98,7,2,8,0.00
2014-8-20,97.2,84.5,74.1,78.7,73.9,66.6,100,74,39,30.11,30.01,6,1,8,0.00
2014-8-21,98.1,81.8,74.1,78.6,74.8,71.7,100,81,47,30.14,30.05,11,1,18,0.90
2014-8-22,97.5,83.1,74.1,80.1,74.4,69.8,100,78,42,30.12,29.99,11,1,14,0.00
2014-8-23,95.7,84.3,74.7,77.9,74.2,68.7,100,75,43,30.03,29.86,11,1,11,0.00
2014-8-24,97.0,84.3,73.8,78.5,74.0,68.5,100,74,43,29.91,29.77,21,3,26,0.00
2014-8-25,89.8,82.5,77.4,78.4,76.0,72.4,96,81,63,29.86,29.80,24,10,31,0.05
2014-8-26,90.0,81.9,75.2,76.4,72.2,64.4,96,74,44,29.96,29.85,20,9,23,0.00
2014-8-27,94.1,82.1,72.5,76.3,72.4,66.5,100,75,43,30.01,29.93,13,5,18,0.01
2014-8-28,96.1,82.4,73.2,77.8,74.2,69.2,100,80,43,30.03,29.94,8,2,10,0.30
2014-8-29,96.4,81.2,72.5,81.5,75.9,71.2,100,86,54,30.14,30.00,9,2,13,1.11
2014-8-30,98.1,79.4,72.5,80.8,75.3,72.4,100,89,51,30.15,30.04,16,2,16,0.23
2014-8-31,94.3,80.0,74.1,81.6,76.2,74.0,100,89,59,30.15,30.06,7,1,11,0.13
2014-9-1,95.2,81.3,74.1,80.5,75.5,71.7,100,84,50,30.14,30.05,6,1,13,0.00
2014-9-2,94.8,80.8,73.6,77.6,74.4,70.0,100,84,48,30.11,29.99,10,1,14,0.09
2014-9-3,94.8,79.5,71.4,78.8,74.0,71.1,100,85,51,30.07,29.99,5,1,10,0.00
2014-9-4,93.7,78.8,71.4,77.8,73.5,70.6,100,86,51,30.14,30.03,4,1,10,0.19
2014-9-5,93.2,77.6,70.3,79.1,73.3,70.4,100,88,55,30.14,30.04,10,1,10,0.41
2014-9-6,92.7,76.7,71.6,80.7,73.8,71.3,100,92,52,30.09,29.98,8,1,10,0.81
2014-9-7,88.3,77.2,72.7,81.8,74.3,70.6,100,91,71,30.05,29.98,7,1,16,0.01
2014-9-8,94.3,78.8,72.5,80.6,74.1,71.3,100,87,59,30.09,30.00,6,1,9,0.09
2014-9-9,92.3,80.3,72.1,79.6,73.9,68.1,100,83,47,30.09,29.99,4,1,8,0.00
2014-9-10,93.7,79.9,72.5,78.1,74.8,72.3,100,86,55,30.04,29.97,11,2,12,0.05
2014-9-11,92.3,78.7,70.9,77.8,73.6,70.9,100,86,58,30.05,29.95,14,2,22,0.00
2014-9-12,89.2,79.1,73.6,78.2,75.1,72.3,100,88,63,30.02,29.93,14,3,20,0.09
2014-9-13,93.6,80.9,73.0,76.9,74.1,71.9,100,82,53,30.10,29.99,3,0,6,0.00
2014-9-14,93.7,77.8,72.0,76.8,73.7,70.8,100,89,54,30.17,30.07,10,1,15,0.10
2014-9-15,93.7,81.1,70.9,76.8,72.2,66.3,100,77,43,30.18,30.07,3,0,5,0.00
2014-9-16,93.7,79.8,71.4,76.9,72.4,67.6,100,81,43,30.16,29.98,10,1,13,0.05
2014-9-17,75.9,73.2,69.3,74.9,72.2,69.3,100,97,91,30.03,29.90,4,1,9,0.10
2014-9-18,92.1,78.6,68.4,77.4,71.8,66.9,100,82,47,29.96,29.87,6,1,8,0.00
2014-9-19,87.8,76.1,69.8,77.7,73.4,69.5,100,92,70,29.98,29.91,14,3,17,3.72
2014-9-20,87.1,74.7,70.3,76.2,72.3,70.0,100,93,60,29.98,29.90,8,2,12,0.43
2014-9-21,88.3,75.5,70.0,77.7,73.6,70.0,100,94,68,30.05,29.94,6,1,11,0.70
2014-9-22,88.9,75.9,70.9,79.0,73.2,69.9,100,92,67,30.06,29.96,4,1,8,0.28
2014-9-23,86.2,74.6,70.9,78.2,73.1,70.9,100,96,71,30.04,29.95,6,1,8,0.39
2014-9-24,87.8,76.8,71.4,77.3,73.9,71.5,100,91,64,30.10,30.00,10,4,14,0.09
2014-9-25,88.9,77.7,72.5,77.7,74.5,72.4,100,91,67,30.11,29.99,14,5,17,0.01
2014-9-26,93.0,79.8,73.0,79.7,75.6,73.1,100,88,59,30.04,29.94,16,5,19,0.60
2014-9-27,93.0,77.5,72.5,80.7,74.7,72.5,100,92,59,30.03,29.93,18,3,23,0.61
2014-9-28,92.5,78.5,72.0,80.3,75.2,71.9,100,91,63,30.03,29.91,16,2,20,2.21
2014-9-29,92.1,79.6,73.2,80.4,74.4,72.0,100,86,54,29.98,29.83,7,1,12,0.00
2014-9-30,89.8,78.0,73.0,78.0,74.6,73.1,100,90,63,29.89,29.83,7,2,11,0.32
2014-10-1,90.5,80.0,73.0,79.6,74.7,71.2,100,85,59,30.00,29.86,7,1,11,0.00
2014-10-2,92.7,80.8,73.0,79.5,74.7,71.0,100,84,54,30.05,29.97,8,2,10,0.00
2014-10-3,92.1,80.8,72.9,80.0,75.2,72.7,100,84,59,30.05,29.94,6,0,10,0.00
2014-10-4,87.4,75.9,62.8,77.0,71.4,59.8,100,87,69,29.98,29.84,10,2,15,0.19
2014-10-5,79.5,68.6,59.5,62.2,56.2,47.1,100,68,40,30.05,29.93,9,4,11,0.00
2014-10-6,88.3,73.1,63.3,69.4,64.2,58.4,87,75,52,30.10,30.01,11,4,13,0.00
2014-10-7,88.2,75.6,69.3,77.4,70.1,65.1,100,84,63,30.12,30.04,5,1,7,0.03
2014-10-8,89.4,77.8,69.8,75.7,71.8,69.0,100,84,52,30.15,30.05,8,2,11,0.01
2014-10-9,88.7,77.5,67.8,73.9,70.0,67.5,100,80,52,30.11,30.02,13,5,16,0.00
2014-10-10,90.9,78.1,67.6,74.0,70.3,66.7,100,79,48,30.08,29.99,11,4,13,0.00
2014-10-11,91.6,78.7,68.2,75.0,70.0,64.4,100,78,43,30.05,29.98,10,2,11,0.00
2014-10-12,94.1,78.2,67.6,75.3,70.6,67.7,100,80,48,30.09,30.00,7,1,11,0.00
2014-10-13,94.1,79.6,68.7,77.5,72.1,68.6,100,81,47,30.11,30.00,3,0,5,0.00
2014-10-14,92.5,77.6,71.4,78.3,73.4,70.1,100,88,55,30.05,29.93,13,1,19,0.10
2014-10-15,87.8,76.4,65.5,75.7,71.5,61.9,100,86,64,30.01,29.91,6,1,11,0.03
2014-10-16,84.7,69.8,57.4,64.5,60.2,57.4,100,76,43,29.99,29.89,8,2,17,0.00
2014-10-17,83.5,68.9,57.0,59.9,57.3,54.3,96,71,39,30.03,29.94,8,2,10,0.00
2014-10-18,85.1,69.3,56.8,67.4,59.5,56.0,100,75,40,30.02,29.93,4,1,8,0.00
2014-10-19,84.6,71.4,60.3,68.6,63.5,59.8,100,79,45,30.05,29.98,9,2,12,0.00
2014-10-20,89.4,73.7,62.2,70.0,65.4,62.3,100,79,43,30.08,29.94,6,1,7,0.00
2014-10-21,86.2,74.1,68.7,74.2,70.2,67.9,100,89,59,29.98,29.91,8,1,8,0.00
2014-10-22,87.3,74.6,66.0,72.1,67.3,63.4,100,81,51,30.00,29.92,12,3,15,0.00
2014-10-23,83.3,72.6,66.0,66.0,62.3,58.3,84,71,47,29.99,29.91,14,7,15,0.00
2014-10-24,83.3,70.7,62.8,63.5,60.4,56.9,92,72,42,29.99,29.88,18,7,19,0.00
2014-10-25,82.4,70.1,62.1,60.7,58.1,53.6,88,68,43,29.99,29.93,10,4,13,0.00
2014-10-26,84.0,67.6,54.1,62.1,55.7,46.2,100,72,27,30.05,29.95,7,1,10,0.00
2014-10-27,87.8,69.1,54.7,64.4,59.6,54.6,100,76,39,30.12,30.03,3,0,4,0.00
2014-10-28,89.4,72.9,60.1,68.1,63.5,59.7,100,76,39,30.18,30.08,4,0,7,0.00
2014-10-29,88.7,72.8,61.7,72.7,64.4,59.1,100,78,41,30.13,30.00,5,1,8,0.00
2014-10-30,88.7,73.0,62.8,71.4,66.2,62.7,100,83,44,30.03,29.87,4,1,6,0.08
2014-10-31,82.2,70.0,57.0,69.8,60.0,43.5,100,75,36,29.92,29.80,8,2,13,0.01
2014-11-1,67.6,57.8,46.0,54.4,44.8,29.2,100,66,31,30.18,29.91,17,3,19,0.00
2014-11-2,68.2,52.2,39.0,46.9,39.6,32.5,95,67,27,30.31,30.19,10,3,14,0.00
2014-11-3,75.4,60.7,46.0,56.9,50.7,40.5,96,71,51,30.35,30.28,16,6,19,0.00
2014-11-4,80.2,67.5,57.4,62.8,59.3,55.8,96,77,47,30.30,30.19,15,5,19,0.00
2014-11-5,82.9,70.2,59.7,65.8,63.2,59.7,100,80,48,30.23,30.12,17,4,17,0.00
2014-11-6,87.4,72.1,62.8,68.6,63.6,58.6,100,77,45,30.17,29.99,5,1,6,0.00
2014-11-7,84.0,69.4,59.5,65.8,61.8,55.2,100,79,47,30.00,29.91,11,3,13,0.00
2014-11-8,81.3,66.6,57.4,66.0,59.9,55.1,100,81,55,29.98,29.86,9,3,9,0.35
2014-11-9,63.5,60.8,57.4,62.2,60.6,57.4,100,99,91,29.95,29.85,10,3,13,0.50
2014-11-10,79.5,66.0,58.5,66.0,61.3,57.8,100,86,57,29.98,29.91,11,2,12,0.00
2014-11-11,81.7,66.0,55.8,59.6,56.0,51.6,100,74,46,29.98,29.90,10,3,14,0.00
2014-11-12,81.9,66.1,54.1,58.3,54.1,48.1,96,69,31,30.06,29.98,8,2,12,0.00
2014-11-13,84.0,64.5,51.6,59.1,51.7,42.1,100,71,23,30.09,29.98,6,1,7,0.00
2014-11-14,76.3,63.6,54.1,66.8,59.9,49.1,99,88,70,30.15,30.00,7,2,9,0.00
2014-11-15,79.5,65.3,54.1,63.3,57.7,51.0,95,78,54,30.23,30.12,11,4,11,0.00
2014-11-16,86.4,70.1,58.6,71.5,64.5,57.8,97,84,56,30.22,30.06,6,1,7,0.00
2014-11-17,88.7,72.3,64.4,74.4,68.2,63.6,100,89,59,30.06,29.91,14,2,18,0.95
2014-11-18,67.8,54.4,46.0,67.0,49.8,37.2,97,85,65,30.29,29.97,14,5,19,0.13
2014-11-19,60.6,51.5,43.3,50.8,44.1,34.7,96,76,63,30.34,30.24,12,6,18,0.00
2014-11-20,68.9,57.1,48.2,53.4,49.9,46.6,99,79,51,30.27,30.17,13,6,16,0.00
2014-11-21,70.5,62.9,54.7,60.9,55.7,49.2,90,78,65,30.26,30.19,17,8,22,0.01
2014-11-22,77.0,69.8,64.0,69.5,66.1,61.1,98,88,77,30.23,30.08,17,6,17,0.04
2014-11-23,86.7,74.4,68.7,74.8,70.8,68.0,98,90,61,30.08,29.89,7,1,10,0.04
2014-11-24,90.0,78.0,71.4,76.3,71.1,66.0,98,81,49,30.04,29.93,11,2,13,0.00
2014-11-25,83.5,75.1,70.3,77.8,73.3,68.5,98,94,78,30.03,29.88,5,0,10,0.82
2014-11-26,73.6,58.2,45.5,73.0,55.5,43.9,98,91,65,30.23,29.87,11,2,17,1.69
2014-11-27,73.2,55.6,43.3,53.7,45.2,36.8,98,72,43,30.30,30.17,9,2,13,0.00
2014-11-28,63.5,52.9,43.3,47.3,41.8,36.3,87,67,39,30.33,30.23,13,6,18,0.00
2014-11-29,74.8,58.9,47.1,56.4,51.7,44.8,100,79,51,30.31,30.23,12,5,15,0.00
2014-11-30,80.6,63.8,51.4,63.3,58.0,51.4,100,84,52,30.32,30.24,12,3,16,0.00
2014-12-1,79.7,66.5,56.5,67.6,62.8,56.5,100,89,63,30.32,30.19,13,4,17,0.01
2014-12-2,76.3,68.0,62.2,70.2,65.5,62.3,100,92,71,30.24,30.13,13,5,24,0.09
2014-12-3,81.3,68.5,61.3,69.7,63.8,61.3,100,87,55,30.19,30.11,13,5,19,0.01
2014-12-4,82.2,68.9,62.2,69.0,64.5,61.1,100,87,59,30.22,30.12,22,6,23,0.00
2014-12-5,79.7,69.8,65.5,70.1,67.3,63.8,100,92,71,30.26,30.17,14,6,15,0.00
2014-12-6,84.6,71.4,64.4,69.9,65.9,62.3,100,85,51,30.24,30.11,6,1,8,0.00
2014-12-7,72.1,65.6,57.6,66.0,62.8,56.4,100,91,75,30.14,30.04,13,3,17,0.00
2014-12-8,72.7,62.2,57.9,65.5,61.3,57.5,100,97,75,30.12,30.02,10,2,12,0.34
2014-12-9,67.3,56.5,48.2,57.4,51.1,42.8,100,84,51,30.11,30.00,11,3,12,0.08
2014-12-10,67.8,52.5,40.6,47.7,43.2,38.6,100,75,35,30.17,30.06,9,1,11,0.00
2014-12-11,69.4,52.2,39.6,51.6,46.1,39.6,100,83,51,30.22,30.12,9,1,12,0.00
2014-12-12,58.6,49.7,43.3,47.3,45.0,41.2,100,85,60,30.28,30.19,6,0,6,0.00
2014-12-13,70.5,52.8,41.2,49.1,42.4,34.0,100,72,31,30.21,30.10,8,2,10,0.00
2014-12-14,73.8,54.2,40.6,44.7,40.6,35.7,100,66,27,30.14,30.05,5,1,5,0.00
2014-12-15,75.4,54.5,41.7,50.3,44.2,39.1,100,74,27,30.16,30.06,6,1,6,0.00
2014-12-16,76.3,57.4,43.9,54.6,48.4,41.7,100,77,35,30.23,30.13,9,1,10,0.00
2014-12-17,76.8,62.6,54.3,63.3,58.5,47.8,100,88,63,30.22,30.10,7,1,8,0.00
2014-12-18,73.6,56.5,43.9,55.2,48.6,43.9,100,78,43,30.21,30.08,6,1,9,0.00
2014-12-19,75.4,58.4,46.6,56.5,51.0,46.6,100,81,39,30.16,30.05,6,1,8,0.00
2014-12-20,82.4,63.8,52.5,64.7,58.1,52.5,100,84,48,30.13,30.04,3,0,4,0.00
2014-12-21,84.9,68.0,57.9,68.4,63.7,57.9,100,88,55,30.12,30.01,4,0,9,0.00
2014-12-22,84.6,71.2,64.6,72.2,67.2,64.6,100,89,59,30.05,29.92,7,1,10,0.00
2014-12-23,86.0,72.9,64.4,74.9,68.1,64.4,100,87,55,29.99,29.88,4,0,7,0.00
2014-12-24,85.6,74.6,65.5,73.3,70.2,64.3,100,87,63,29.99,29.85,13,3,16,0.20
2014-12-25,70.9,63.2,56.3,64.3,56.0,50.3,100,79,52,30.23,29.98,10,3,13,0.00
2014-12-26,70.0,62.6,54.7,63.7,58.6,52.4,95,87,75,30.24,30.18,9,4,10,0.00
2014-12-27,82.2,70.3,64.9,71.9,66.5,62.6,100,89,67,30.26,30.16,6,1,7,0.00
2014-12-28,85.6,71.1,62.8,72.4,65.5,62.5,100,85,48,30.19,30.10,7,1,10,0.00
2014-12-29,85.6,69.7,60.6,73.6,65.2,60.6,100,88,55,30.16,30.05,9,1,11,0.00
2014-12-30,82.8,69.1,61.7,75.1,66.2,61.7,100,92,56,30.24,30.11,11,3,13,0.00
2014-12-31,68.9,65.2,62.8,66.4,64.1,62.2,100,96,91,30.28,30.17,12,5,14,0.00
2015-1-1,77.5,66.9,60.1,69.5,64.9,60.1,100,94,75,30.25,30.14,8,4,14,0.00
2015-1-2,80.8,69.7,64.0,71.7,67.7,63.8,100,94,70,30.28,30.17,11,3,11,0.00